Time;durP1;ratioP1;P1;durP2;ratioP2;P2;SDS_P1;SDS_P2;PMS_P1;PMS_P2;Temp;Humidity;BMP_temperature;BMP_pressure;BME280_temperature;BME280_humidity;BME280_pressure;Samples;Min_cycle;Max_cycle;Signal;HPM_P1;HPM_P2
2022/09/23 00:07:32;;;;;;;0.60;0.60;;;;;;;8.81;64.85;100959.16;18498036;32;20114;-57
2022/09/23 00:17:35;;;;;;;0.50;0.50;;;;;;;8.80;64.80;100955.72;18498073;32;20145;-56
2022/09/23 00:27:41;;;;;;;0.47;0.47;;;;;;;8.77;65.22;100949.59;18497535;32;20346;-56
2022/09/23 00:37:44;;;;;;;0.40;0.40;;;;;;;8.62;64.46;100945.87;18497504;32;20421;-56
2022/09/23 00:47:51;;;;;;;1.12;1.12;;;;;;;8.44;64.00;100949.97;18496392;32;20111;-56
2022/09/23 00:57:57;;;;;;;1.00;1.00;;;;;;;8.23;64.94;100923.59;18497181;32;20372;-57
2022/09/23 01:08:03;;;;;;;0.70;0.70;;;;;;;8.11;64.64;100922.53;18496457;32;20115;-56
2022/09/23 01:18:13;;;;;;;0.68;0.68;;;;;;;8.00;64.08;100926.69;18496029;32;20111;-56
2022/09/23 01:28:35;;;;;;;0.50;0.50;;;;;;;7.84;64.91;100926.44;18494949;32;20625;-56
2022/09/23 01:38:41;;;;;;;;;;;;;;;7.79;64.25;100930.69;18495870;32;20089;-57
2022/09/23 01:48:48;;;;;;;0.60;0.60;;;;;;;7.75;63.78;100918.47;18495060;32;20376;-56
2022/09/23 01:58:56;;;;;;;0.60;0.60;;;;;;;7.44;64.35;100930.91;18495393;32;20414;-56
2022/09/23 02:09:02;;;;;;;1.42;1.30;;;;;;;7.33;65.40;100935.88;18494530;32;20100;-56
2022/09/23 02:19:09;;;;;;;0.40;0.40;;;;;;;7.32;65.21;100924.63;18494158;32;20467;-56
2022/09/23 02:29:19;;;;;;;0.60;0.60;;;;;;;7.05;65.08;100914.53;18492099;32;20089;-57
2022/09/23 02:39:29;;;;;;;0.60;0.60;;;;;;;7.12;65.38;100921.63;18499512;32;20428;-56
2022/09/23 02:49:35;;;;;;;0.50;0.50;;;;;;;6.93;65.96;100918.63;18500567;32;20181;-56
2022/09/23 02:59:39;;;;;;;0.40;0.40;;;;;;;6.91;65.47;100933.31;18500364;32;20092;-56
2022/09/23 03:09:50;;;;;;;0.77;0.77;;;;;;;7.19;64.69;100930.41;18499855;32;20111;-56
2022/09/23 03:19:58;;;;;;;0.60;0.60;;;;;;;7.20;64.65;100921.75;18499911;32;20088;-56
2022/09/23 03:30:01;;;;;;;0.65;0.65;;;;;;;6.98;65.31;100918.72;18499733;32;20096;-56
2022/09/23 03:40:10;;;;;;;2.05;1.25;;;;;;;7.00;65.07;100921.37;18499317;32;20443;-56
2022/09/23 03:50:16;;;;;;;0.73;0.73;;;;;;;6.95;64.67;100916.09;18498100;32;20085;-56
2022/09/23 04:00:20;;;;;;;0.75;0.75;;;;;;;6.91;64.71;100915.16;18498730;32;20449;-57
2022/09/23 04:10:23;;;;;;;0.60;0.60;;;;;;;6.70;65.58;100925.94;18497618;32;20387;-57
2022/09/23 04:20:29;;;;;;;0.70;0.70;;;;;;;6.87;64.67;100926.28;18498014;32;20119;-56
2022/09/23 04:30:32;;;;;;;0.65;0.65;;;;;;;6.63;65.40;100921.44;18497628;32;20479;-56
2022/09/23 04:40:36;;;;;;;0.70;0.70;;;;;;;6.84;64.70;100925.37;18497905;32;20092;-57
2022/09/23 04:50:40;;;;;;;0.68;0.68;;;;;;;6.65;65.36;100917.19;18496967;32;20146;-57
2022/09/23 05:00:44;;;;;;;0.70;0.70;;;;;;;6.43;65.93;100934.81;18495009;32;20111;-57
2022/09/23 05:10:48;;;;;;;0.60;0.60;;;;;;;6.68;65.69;100934.50;18496380;32;20377;-56
2022/09/23 05:20:55;;;;;;;0.95;0.90;;;;;;;6.80;65.33;100948.63;18496045;32;20115;-56
2022/09/23 05:31:03;;;;;;;0.60;0.60;;;;;;;7.06;65.62;100957.81;18495588;32;20084;-56
2022/09/23 05:41:10;;;;;;;0.52;0.52;;;;;;;8.16;64.36;100957.31;18494905;32;20104;-57
2022/09/23 05:51:15;;;;;;;0.70;0.70;;;;;;;9.26;62.05;100962.37;18494840;32;20377;-58
2022/09/23 06:01:21;;;;;;;0.50;0.50;;;;;;;11.32;58.28;100962.28;18492001;32;20240;-57
2022/09/23 06:11:25;;;;;;;0.30;0.30;;;;;;;13.38;53.83;100963.97;18497845;32;20097;-57
2022/09/23 06:21:29;;;;;;;0.40;0.40;;;;;;;14.54;51.79;100954.41;18500289;32;20501;-57
2022/09/23 06:31:32;;;;;;;0.40;0.40;;;;;;;15.21;50.56;100963.34;18500907;32;20466;-57
2022/09/23 06:41:38;;;;;;;0.62;0.62;;;;;;;15.66;49.50;100963.63;18501393;32;20093;-57
2022/09/23 06:51:41;;;;;;;0.30;0.30;;;;;;;13.80;55.37;100965.50;18480183;32;20100;-57
2022/09/23 07:01:47;;;;;;;0.22;0.22;;;;;;;14.94;53.75;100970.66;18495683;32;20448;-57
2022/09/23 07:11:50;;;;;;;1.05;0.95;;;;;;;16.17;50.61;100969.00;18493752;32;20115;-57
2022/09/23 07:21:54;;;;;;;0.40;0.40;;;;;;;17.13;47.37;100959.41;18493164;32;20123;-57
2022/09/23 07:31:58;;;;;;;0.30;0.30;;;;;;;17.49;47.63;100966.56;18489126;32;20377;-56
2022/09/23 07:42:15;;;;;;;0.30;0.30;;;;;;;17.73;47.28;100973.03;18493910;32;20088;-57
2022/09/23 07:52:21;;;;;;;0.40;0.40;;;;;;;17.51;47.24;100967.38;18492790;32;20088;-56
2022/09/23 08:02:25;;;;;;;0.20;0.20;;;;;;;17.48;46.19;100965.66;18493627;32;20101;-56
2022/09/23 08:12:30;;;;;;;0.28;0.28;;;;;;;17.50;45.19;100968.28;18493825;32;20096;-56
2022/09/23 08:22:34;;;;;;;0.65;0.57;;;;;;;17.09;47.37;100970.91;18479903;32;20092;-57
2022/09/23 08:32:37;;;;;;;0.28;0.28;;;;;;;17.34;44.88;100968.59;18479372;32;20092;-57
2022/09/23 08:42:44;;;;;;;0.30;0.30;;;;;;;18.11;44.02;100957.19;18494396;32;20128;-56
2022/09/23 08:52:50;;;;;;;0.30;0.30;;;;;;;18.15;44.27;100948.31;18479108;32;20107;-57
2022/09/23 09:02:55;;;;;;;0.30;0.30;;;;;;;18.76;43.60;100948.50;18456289;32;20465;-57
2022/09/23 09:13:04;;;;;;;0.93;0.80;;;;;;;18.99;42.95;100937.25;18491647;32;20101;-57
2022/09/23 09:23:18;;;;;;;0.30;0.30;;;;;;;19.63;40.66;100927.44;18475536;32;20085;-56
2022/09/23 09:33:24;;;;;;;0.20;0.20;;;;;;;19.08;41.40;100922.97;18491478;32;20100;-57
2022/09/23 09:43:29;;;;;;;0.20;0.20;;;;;;;19.82;40.85;100918.03;18489847;32;20100;-57
2022/09/23 09:53:34;;;;;;;0.20;0.20;;;;;;;18.55;43.45;100912.06;18489883;32;20121;-56
2022/09/23 10:03:41;;;;;;;0.30;0.30;;;;;;;19.52;40.90;100896.03;18488469;32;20491;-56
2022/09/23 10:14:04;;;;;;;0.20;0.20;;;;;;;18.85;41.52;100892.69;18489267;32;20096;-56
2022/09/23 10:24:20;;;;;;;0.20;0.20;;;;;;;19.04;41.75;100894.84;18474772;32;20105;-56
2022/09/23 10:34:27;;;;;;;0.10;0.10;;;;;;;19.81;39.54;100889.78;18486658;32;20089;-56
2022/09/23 10:55:16;;;;;;;0.10;0.10;;;;;;;20.12;36.98;100868.50;18285625;32;20120;-57
2022/09/23 11:05:31;;;;;;;0.10;0.10;;;;;;;21.55;34.81;100857.87;18278939;32;20144;-57
2022/09/23 11:15:45;;;;;;;0.40;0.40;;;;;;;20.62;35.94;100857.84;18093708;32;20538;-57
2022/09/23 11:25:54;;;;;;;0.10;0.10;;;;;;;20.03;38.21;100846.69;18112709;32;20207;-58
2022/09/23 11:36:00;;;;;;;0.37;0.30;;;;;;;20.24;38.63;100844.22;18490565;32;20150;-57
2022/09/23 11:46:09;;;;;;;0.20;0.20;;;;;;;20.26;37.83;100829.09;18493855;32;20122;-57
2022/09/23 11:56:16;;;;;;;0.20;0.20;;;;;;;20.24;39.12;100838.91;18494675;32;20080;-56
2022/09/23 12:06:41;;;;;;;0.15;0.15;;;;;;;20.26;37.27;100813.22;18491046;32;20097;-57
2022/09/23 12:16:58;;;;;;;0.20;0.20;;;;;;;20.41;38.04;100811.78;18493890;32;20088;-57
2022/09/23 12:27:06;;;;;;;0.10;0.10;;;;;;;20.47;36.91;100810.69;18494916;32;20122;-56
2022/09/23 12:37:09;;;;;;;0.30;0.30;;;;;;;21.14;35.05;100794.91;18494118;32;20182;-56
2022/09/23 12:47:37;;;;;;;0.15;0.15;;;;;;;20.72;34.51;100780.59;18492682;32;20170;-57
2022/09/23 12:57:41;;;;;;;0.10;0.10;;;;;;;21.20;36.02;100763.66;18486568;32;20468;-56
2022/09/23 13:07:48;;;;;;;0.20;0.20;;;;;;;21.66;34.63;100757.34;18493326;32;20115;-57
2022/09/23 13:17:52;;;;;;;0.13;0.13;;;;;;;22.09;35.23;100743.09;18488724;32;20375;-57
2022/09/23 13:28:00;;;;;;;0.10;0.10;;;;;;;21.80;33.07;100739.97;18492165;32;20491;-57
2022/09/23 13:38:11;;;;;;;0.37;0.37;;;;;;;21.31;34.77;100738.47;18436194;32;20089;-57
2022/09/23 13:48:15;;;;;;;0.32;0.32;;;;;;;21.62;33.37;100731.81;18464070;32;20144;-56
2022/09/23 13:58:20;;;;;;;0.20;0.20;;;;;;;22.63;30.44;100730.03;18488390;32;20381;-55
2022/09/23 14:08:25;;;;;;;0.20;0.20;;;;;;;20.07;36.34;100728.22;18476489;32;20084;-56
2022/09/23 14:18:33;;;;;;;0.20;0.20;;;;;;;18.05;39.91;100735.47;18488485;32;20167;-56
2022/09/23 14:28:38;;;;;;;0.30;0.30;;;;;;;17.65;42.96;100729.47;18466419;32;20104;-56
2022/09/23 14:38:53;;;;;;;0.28;0.28;;;;;;;18.41;42.69;100711.56;18477939;32;20101;-56
2022/09/23 14:49:01;;;;;;;0.20;0.20;;;;;;;18.37;42.50;100709.91;18469796;32;20104;-56
2022/09/23 14:59:24;;;;;;;0.20;0.20;;;;;;;19.10;41.88;100701.50;18428833;32;20343;-55
2022/09/23 15:09:31;;;;;;;0.30;0.30;;;;;;;19.27;43.09;100701.81;18443317;32;20128;-56
2022/09/23 15:19:35;;;;;;;1.65;0.37;;;;;;;19.14;42.62;100705.78;18496071;32;20088;-56
2022/09/23 15:29:40;;;;;;;0.28;0.28;;;;;;;19.24;42.92;100701.91;18470597;32;20121;-56
2022/09/23 15:39:43;;;;;;;0.62;0.47;;;;;;;18.27;43.86;100682.91;18447780;32;20125;-56
2022/09/23 15:49:48;;;;;;;0.30;0.30;;;;;;;18.74;42.82;100680.59;18481264;32;20101;-56
2022/09/23 15:59:51;;;;;;;0.47;0.40;;;;;;;18.78;42.75;100679.56;18495339;32;20130;-56
2022/09/23 16:09:57;;;;;;;0.25;0.25;;;;;;;19.18;43.51;100691.53;18492604;32;81427;-56
2022/09/23 16:20:00;;;;;;;0.30;0.30;;;;;;;19.11;43.84;100690.87;18494623;32;20126;-56
2022/09/23 16:30:06;;;;;;;0.90;0.60;;;;;;;18.85;44.92;100691.69;18493609;32;20180;-56
2022/09/23 16:40:10;;;;;;;0.20;0.20;;;;;;;18.44;47.67;100687.66;18479090;32;20084;-56
2022/09/23 16:50:16;;;;;;;0.43;0.40;;;;;;;17.98;48.92;100691.63;18493229;32;20097;-56
2022/09/23 17:10:41;;;;;;;0.50;0.50;;;;;;;16.78;53.04;100702.56;18495538;32;20102;-55
2022/09/23 17:20:45;;;;;;;0.40;0.40;;;;;;;16.44;53.66;100696.28;18482137;32;20100;-56
2022/09/23 17:30:51;;;;;;;0.55;0.55;;;;;;;15.95;54.71;100701.69;18496028;32;20443;-55
2022/09/23 17:40:57;;;;;;;0.43;0.43;;;;;;;15.42;56.08;100711.41;18458931;32;20102;-55
2022/09/23 17:51:03;;;;;;;0.30;0.30;;;;;;;14.96;57.46;100703.38;18430677;32;20089;-55
2022/09/23 18:01:09;;;;;;;0.30;0.30;;;;;;;14.52;57.78;100717.12;18430183;32;20775;-55
2022/09/23 18:11:16;;;;;;;0.50;0.50;;;;;;;14.23;58.17;100726.25;18428825;32;20088;-55
2022/09/23 18:21:19;;;;;;;0.43;0.43;;;;;;;13.78;59.19;100731.13;18430187;32;20109;-55
2022/09/23 18:31:24;;;;;;;0.40;0.40;;;;;;;13.46;59.12;100720.91;18428396;32;20107;-55
2022/09/23 18:41:27;;;;;;;0.40;0.40;;;;;;;13.19;59.78;100722.00;18427869;32;20109;-55
2022/09/23 18:51:33;;;;;;;0.90;0.82;;;;;;;12.65;61.80;100731.06;18427014;32;20092;-56
2022/09/23 19:01:37;;;;;;;0.40;0.40;;;;;;;12.48;60.93;100733.78;18426666;32;20109;-55
2022/09/23 19:11:43;;;;;;;0.77;0.77;;;;;;;12.26;61.72;100740.84;18408509;32;20101;-56
2022/09/23 19:21:46;;;;;;;0.55;0.55;;;;;;;12.01;61.44;100744.41;18450094;32;20582;-55
2022/09/23 19:31:50;;;;;;;0.50;0.50;;;;;;;11.75;61.37;100742.69;18498032;32;20089;-55
2022/09/23 19:41:54;;;;;;;0.43;0.43;;;;;;;11.61;61.60;100739.25;18498446;32;20116;-56
2022/09/23 19:51:59;;;;;;;0.70;0.70;;;;;;;11.25;62.86;100749.72;18483939;32;20111;-56
2022/09/23 20:02:02;;;;;;;0.80;0.70;;;;;;;11.05;62.16;100744.47;18498384;32;20096;-56
2022/09/23 20:12:06;;;;;;;0.43;0.43;;;;;;;10.83;62.49;100750.50;18497404;32;20096;-56
2022/09/23 20:22:25;;;;;;;0.60;0.60;;;;;;;10.71;62.90;100755.72;18483453;32;20369;-56
2022/09/23 20:32:36;;;;;;;0.88;0.88;;;;;;;10.39;63.59;100749.47;18497300;32;20089;-55
2022/09/23 20:42:47;;;;;;;0.93;0.93;;;;;;;10.60;62.06;100742.63;18497913;32;20670;-55
2022/09/23 20:52:53;;;;;;;0.60;0.60;;;;;;;10.40;62.76;100734.69;18497594;32;20097;-55
2022/09/23 21:02:56;;;;;;;1.35;1.25;;;;;;;10.05;62.71;100749.28;18480611;32;20530;-56
2022/09/23 21:13:01;;;;;;;0.40;0.40;;;;;;;9.74;64.47;100741.28;18490795;32;20157;-56
2022/09/23 21:23:05;;;;;;;2.03;1.87;;;;;;;9.66;63.32;100745.56;18500160;32;20102;-58
2022/09/23 21:33:10;;;;;;;1.83;1.05;;;;;;;9.69;63.67;100750.84;18491412;32;20406;-56
2022/09/23 21:43:13;;;;;;;1.02;1.02;;;;;;;9.67;62.99;100749.94;18477047;32;20111;-56
2022/09/23 21:53:17;;;;;;;0.93;0.88;;;;;;;9.38;63.78;100740.16;18492206;32;20129;-57
2022/09/23 22:03:20;;;;;;;0.40;0.40;;;;;;;9.23;64.93;100744.38;18491357;32;20097;-56
2022/09/23 22:13:25;;;;;;;0.62;0.62;;;;;;;9.24;63.76;100755.66;18490436;32;20154;-56
2022/09/23 22:23:28;;;;;;;0.60;0.60;;;;;;;9.12;63.75;100753.84;18490286;32;20092;-56
2022/09/23 22:33:32;;;;;;;0.40;0.40;;;;;;;8.99;64.53;100748.50;18490695;32;20135;-56
2022/09/23 22:43:36;;;;;;;0.50;0.50;;;;;;;8.73;65.12;100753.44;18489141;32;20354;-56
2022/09/23 22:53:40;;;;;;;0.85;0.65;;;;;;;8.96;63.33;100751.06;18496989;32;20101;-56
2022/09/23 23:03:44;;;;;;;0.50;0.50;;;;;;;8.64;64.24;100745.53;18500451;32;20118;-56
2022/09/23 23:13:49;;;;;;;2.28;1.00;;;;;;;8.61;63.44;100754.16;18500386;32;20107;-56
2022/09/23 23:23:53;;;;;;;0.50;0.50;;;;;;;8.35;64.72;100757.31;18500278;32;20478;-56
2022/09/23 23:33:57;;;;;;;0.62;0.62;;;;;;;8.21;64.79;100757.12;18499711;32;20101;-56
2022/09/23 23:44:01;;;;;;;1.20;1.12;;;;;;;8.19;64.67;100749.31;18500408;32;20161;-56
2022/09/23 23:54:05;;;;;;;0.60;0.60;;;;;;;8.37;63.47;100752.09;18499150;32;20107;-56
